Norwich, Kansas
Current Conditions -  °F | °C
As of 10:53 AM on Wednesday 26 Nov 2014 (Local Time) from KICT Reporting Station
Scattered Clouds Scattered Clouds  
Wind Chill: 39°   Ceiling: Unl
Heat Index: 48°   Visibility: 10mi
Dew Point: 24°   Wind: 31mph
Humidity: 39%   Direction: 320°NW
Pressure: 30.14"   Gusts: 37mph
Location:  37.46°N, 97.85°W
Report Text: KICT 261653Z 32027G32KT 10SM FEW047 SCT130 SCT200 09/M04 A3014 RMK AO2 PK WND 32034/1610 SLP211 T00891044
Loading
Personal Weather Stations






























Interactive Weather Map New forecast layout! Learn more

10-Day Weather Forecast

Advertisements
Track Severe Weather on mobile